Observations for ALDERNEY CHANNEL IS, United Kingdom (EGJA)

EGJA 181820Z 07017G31KT 9999 FEW020 10/07 Q1020 
EGJA 181750Z 06019G33KT 9999 FEW020 10/07 Q1020 
EGJA 181720Z 06018G34KT 9999 FEW020 10/06 Q1020 
EGJA 181650Z 06017G29KT 9999 FEW020 10/06 Q1020 
EGJA 181620Z 05017G31KT 020V080 9999 FEW020 10/06 Q1020 
EGJA 181550Z 06016G31KT 9999 FEW020 10/05 Q1020 
EGJA 181520Z 07019G34KT 9999 FEW020 10/05 Q1021 
EGJA 181450Z 06018G31KT 9999 FEW020 09/05 Q1020 
EGJA 181420Z 06018G31KT 9999 FEW020 09/05 Q1020 
EGJA 181350Z 06018G30KT 9999 FEW020 10/05 Q1021 
EGJA 181320Z 07020G30KT 9999 FEW020 09/05 Q1021 
EGJA 181250Z 07021G31KT 9999 FEW020 09/04 Q1021 
EGJA 181220Z 07020G31KT 9999 FEW020 10/05 Q1021 
EGJA 181150Z 07020G32KT 9999 FEW020 09/05 Q1021 
EGJA 181120Z 06019G30KT 9999 FEW020 09/05 Q1022 
EGJA 181050Z 07020G31KT 9999 FEW020 09/04 Q1022 
EGJA 181020Z 08020G31KT 9999 FEW020 09/05 Q1022 
EGJA 180950Z 08019G29KT 9999 FEW020 09/05 Q1022 
EGJA 180920Z 08017G30KT 9999 FEW020 09/06 Q1022 
EGJA 180850Z 08018G29KT 9999 FEW020 09/05 Q1022 
EGJA 180820Z 07014G27KT 9999 FEW018 09/05 Q1022